Time;durP1;ratioP1;P1;durP2;ratioP2;P2;SDS_P1;SDS_P2;PMS_P1;PMS_P2;Temp;Humidity;BMP_temperature;BMP_pressure;BME280_temperature;BME280_humidity;BME280_pressure;Samples;Min_cycle;Max_cycle;Signal;HPM_P1;HPM_P2
2022/11/22 00:00:37;;;;;;;32.80;22.42;;;3.80;99.90;;;;;;5117140;28;20047;-73
2022/11/22 00:03:03;;;;;;;31.52;21.67;;;3.70;99.90;;;;;;5075615;28;20406;-73
2022/11/22 00:05:31;;;;;;;30.40;21.48;;;3.70;99.90;;;;;;5077212;28;20035;-73
2022/11/22 00:07:57;;;;;;;32.53;22.80;;;3.80;99.90;;;;;;5079241;28;20124;-73
2022/11/22 00:10:23;;;;;;;32.05;22.45;;;3.80;99.90;;;;;;5085235;28;20132;-73
2022/11/22 00:12:48;;;;;;;30.33;21.23;;;3.80;99.90;;;;;;5085033;28;20469;-73
2022/11/22 00:15:14;;;;;;;32.17;22.35;;;3.80;99.90;;;;;;5084584;28;20083;-73
2022/11/22 00:17:40;;;;;;;33.85;23.20;;;3.80;99.90;;;;;;5085299;28;20064;-73
2022/11/22 00:20:07;;;;;;;30.58;20.70;;;3.80;99.90;;;;;;5086975;28;20051;-71
2022/11/22 00:22:33;;;;;;;31.58;22.30;;;3.80;99.90;;;;;;5078596;28;20048;-72
2022/11/22 00:24:59;;;;;;;33.13;22.70;;;3.80;99.90;;;;;;5078211;28;20043;-72
2022/11/22 00:27:24;;;;;;;32.42;21.30;;;3.80;99.90;;;;;;5088104;28;20482;-72
2022/11/22 00:29:50;;;;;;;31.83;21.67;;;3.70;99.90;;;;;;5079924;28;20040;-73
2022/11/22 00:32:15;;;;;;;34.70;24.10;;;3.70;99.90;;;;;;5087751;28;20088;-72
2022/11/22 00:34:41;;;;;;;33.72;22.98;;;3.70;99.90;;;;;;5080175;28;20053;-72
2022/11/22 00:37:07;;;;;;;32.88;22.20;;;3.70;99.90;;;;;;5084521;28;20081;-72
2022/11/22 00:39:32;;;;;;;31.67;23.10;;;3.70;99.90;;;;;;5070708;28;20394;-72
2022/11/22 00:41:58;;;;;;;33.22;20.85;;;3.70;99.90;;;;;;5082430;28;20698;-72
2022/11/22 00:44:24;;;;;;;29.55;21.85;;;3.70;99.90;;;;;;5075835;28;20733;-72
2022/11/22 00:46:49;;;;;;;34.58;22.83;;;3.70;99.90;;;;;;5077054;28;20046;-72
2022/11/22 00:49:15;;;;;;;35.60;23.75;;;3.70;99.90;;;;;;5089227;28;20040;-73
2022/11/22 00:51:40;;;;;;;33.05;22.67;;;3.70;99.90;;;;;;5087607;28;20047;-72
2022/11/22 00:54:06;;;;;;;35.53;23.17;;;3.70;99.90;;;;;;5080638;28;20121;-72
2022/11/22 00:56:32;;;;;;;35.25;23.38;;;3.70;99.90;;;;;;5083265;28;20048;-72
2022/11/22 00:58:58;;;;;;;34.60;23.13;;;3.70;99.90;;;;;;5086584;28;20047;-73
2022/11/22 01:01:24;;;;;;;35.25;23.20;;;3.70;99.90;;;;;;5085324;28;20044;-72
2022/11/22 01:03:50;;;;;;;33.45;22.85;;;3.70;99.90;;;;;;5096057;28;20594;-72
2022/11/22 01:06:15;;;;;;;34.17;23.70;;;3.70;99.90;;;;;;5089081;28;20090;-72
2022/11/22 01:08:41;;;;;;;33.72;24.00;;;3.70;99.90;;;;;;5088362;28;20072;-72
2022/11/22 01:11:07;;;;;;;33.10;22.52;;;3.70;99.90;;;;;;5071040;28;20044;-72
2022/11/22 01:13:33;;;;;;;33.35;22.45;;;3.70;99.90;;;;;;5104598;27;20048;-72
2022/11/22 01:16:01;;;;;;;34.95;23.15;;;3.70;99.90;;;;;;5090503;28;20885;-72
2022/11/22 01:18:27;;;;;;;;;;;3.70;99.90;;;;;;5089856;28;20046;-72
2022/11/22 01:20:53;;;;;;;31.13;21.77;;;3.70;99.90;;;;;;5081163;28;19920;-72
2022/11/22 01:23:18;;;;;;;35.53;23.65;;;3.70;99.90;;;;;;5080941;28;20227;-72
2022/11/22 01:25:44;;;;;;;35.15;23.95;;;3.80;99.90;;;;;;5080550;28;20044;-72
2022/11/22 01:28:10;;;;;;;33.70;22.80;;;3.80;99.90;;;;;;5082397;28;20039;-72
2022/11/22 01:30:36;;;;;;;33.33;23.02;;;3.80;99.90;;;;;;5070744;28;20443;-72
2022/11/22 01:33:01;;;;;;;37.60;23.77;;;3.70;99.90;;;;;;5118395;27;20047;-72
2022/11/22 01:35:27;;;;;;;31.13;22.52;;;3.80;99.90;;;;;;5084499;28;20115;-71
2022/11/22 01:37:53;;;;;;;32.13;22.30;;;3.80;99.90;;;;;;5073916;28;20089;-72
2022/11/22 01:40:18;;;;;;;33.80;22.52;;;3.80;99.90;;;;;;5077292;28;20105;-72
2022/11/22 01:42:52;;;;;;;33.38;23.15;;;3.80;99.90;;;;;;5076563;28;20037;-72
2022/11/22 01:45:31;;;;;;;35.00;23.77;;;3.80;99.90;;;;;;5083098;28;20052;-72
2022/11/22 01:48:00;;;;;;;39.53;23.80;;;3.80;99.90;;;;;;5086373;28;20073;-72
2022/11/22 01:50:28;;;;;;;34.47;22.85;;;3.80;99.90;;;;;;5117810;27;20172;-72
2022/11/22 01:52:56;;;;;;;33.58;22.60;;;3.80;99.90;;;;;;5083425;28;20550;-72
2022/11/22 01:55:22;;;;;;;35.72;22.60;;;3.80;99.90;;;;;;5083774;28;20064;-72
2022/11/22 01:57:48;;;;;;;32.38;22.60;;;3.90;99.90;;;;;;5084064;28;20395;-72
2022/11/22 02:00:16;;;;;;;33.45;22.98;;;3.80;99.90;;;;;;5116743;27;20395;-72
2022/11/22 02:02:45;;;;;;;34.67;22.00;;;3.90;99.90;;;;;;5088000;28;20044;-72
2022/11/22 02:05:15;;;;;;;34.83;23.42;;;3.90;99.90;;;;;;5114416;27;20040;-72
2022/11/22 02:08:00;;;;;;;34.85;21.90;;;3.90;99.90;;;;;;5115646;27;20079;-72
2022/11/22 02:10:28;;;;;;;32.15;21.77;;;3.90;99.90;;;;;;5091046;28;21937;-72
2022/11/22 02:12:57;;;;;;;33.63;21.00;;;3.90;99.90;;;;;;5079919;28;20111;-72
2022/11/22 02:15:22;;;;;;;34.95;21.98;;;3.90;99.90;;;;;;5119410;27;20044;-72
2022/11/22 02:17:48;;;;;;;32.60;21.27;;;3.90;99.90;;;;;;5083556;28;20525;-72
2022/11/22 02:20:16;;;;;;;33.97;21.55;;;3.90;99.90;;;;;;5084566;28;20036;-72
2022/11/22 02:22:44;;;;;;;33.05;21.60;;;4.00;99.90;;;;;;5076775;28;20052;-72
2022/11/22 02:25:35;;;;;;;33.95;21.83;;;4.00;99.90;;;;;;5069618;28;20056;-72
2022/11/22 02:28:00;;;;;;;32.42;20.83;;;4.00;99.90;;;;;;5081895;28;20098;-72
2022/11/22 02:30:26;;;;;;;32.38;21.80;;;4.00;99.90;;;;;;5079687;28;20032;-72
2022/11/22 02:32:52;;;;;;;33.92;22.33;;;4.00;99.90;;;;;;5086728;28;20082;-72
2022/11/22 02:35:21;;;;;;;30.63;21.27;;;4.00;99.90;;;;;;5075422;28;20395;-72
2022/11/22 02:37:53;;;;;;;38.95;23.13;;;4.00;99.90;;;;;;5079661;27;20099;-72
2022/11/22 02:40:20;;;;;;;35.17;22.08;;;4.10;99.90;;;;;;5072221;28;20048;-72
2022/11/22 02:42:54;;;;;;;28.70;20.58;;;4.10;99.90;;;;;;5085003;28;20136;-72
2022/11/22 02:45:20;;;;;;;32.63;20.80;;;4.10;99.90;;;;;;5086984;28;20047;-72
2022/11/22 02:47:46;;;;;;;41.22;22.52;;;4.10;99.90;;;;;;5082288;28;20036;-72
2022/11/22 02:50:11;;;;;;;32.40;21.25;;;4.10;99.90;;;;;;5086659;28;20044;-72
2022/11/22 02:52:37;;;;;;;33.40;21.05;;;4.10;99.90;;;;;;5085729;28;20375;-72
2022/11/22 02:55:03;;;;;;;29.50;20.38;;;4.10;99.90;;;;;;5115875;27;20498;-72
2022/11/22 02:57:28;;;;;;;32.95;21.52;;;4.10;99.90;;;;;;5073872;28;20120;-72
2022/11/22 02:59:54;;;;;;;31.80;20.63;;;4.20;99.90;;;;;;5078436;28;20044;-72
2022/11/22 03:02:20;;;;;;;32.45;21.17;;;4.20;99.90;;;;;;5083829;28;20117;-72
2022/11/22 03:04:45;;;;;;;32.33;21.13;;;4.20;99.90;;;;;;5084473;28;20058;-72
2022/11/22 03:07:11;;;;;;;32.85;20.58;;;4.20;99.90;;;;;;5071628;28;20039;-72
2022/11/22 03:09:36;;;;;;;29.92;20.58;;;4.20;99.90;;;;;;5084246;28;20129;-72
2022/11/22 03:12:02;;;;;;;33.83;21.27;;;4.30;99.90;;;;;;5084490;28;20080;-72
2022/11/22 03:14:28;;;;;;;28.23;19.67;;;4.30;99.90;;;;;;5106350;27;20605;-73
2022/11/22 03:16:53;;;;;;;33.00;20.75;;;4.30;99.90;;;;;;5080140;28;20052;-72
2022/11/22 03:19:19;;;;;;;31.50;20.55;;;4.30;99.90;;;;;;5084833;28;20043;-72
2022/11/22 03:21:45;;;;;;;34.97;19.88;;;4.30;99.90;;;;;;5078716;28;20051;-73
2022/11/22 03:24:11;;;;;;;31.58;20.05;;;4.30;99.90;;;;;;5115021;27;20087;-72
2022/11/22 03:26:37;;;;;;;32.47;21.45;;;4.30;99.90;;;;;;5086784;28;20040;-73
2022/11/22 03:29:03;;;;;;;32.25;19.75;;;4.40;99.90;;;;;;5105563;27;20028;-73
2022/11/22 03:31:29;;;;;;;33.22;20.40;;;4.40;99.90;;;;;;5115935;27;20032;-73
2022/11/22 03:33:55;;;;;;;30.02;19.65;;;4.40;99.90;;;;;;5077434;28;20047;-73
2022/11/22 03:36:24;;;;;;;31.20;21.10;;;4.40;99.90;;;;;;5083557;28;20093;-73
2022/11/22 03:38:49;;;;;;;29.48;19.65;;;4.40;99.90;;;;;;5077719;28;20071;-73
2022/11/22 03:41:15;;;;;;;29.15;20.40;;;4.40;99.90;;;;;;5081545;28;20076;-72
2022/11/22 03:43:41;;;;;;;30.23;20.42;;;4.40;99.90;;;;;;5082274;28;20148;-73
2022/11/22 03:46:16;;;;;;;31.08;20.05;;;4.50;99.90;;;;;;5076672;28;20426;-73
2022/11/22 03:48:41;;;;;;;29.65;19.55;;;4.40;99.90;;;;;;5079602;28;20079;-73
2022/11/22 03:51:07;;;;;;;29.73;19.77;;;4.40;99.90;;;;;;5088531;28;20464;-73
2022/11/22 03:53:32;;;;;;;30.63;21.05;;;4.40;99.90;;;;;;5084799;28;20050;-72
2022/11/22 03:55:59;;;;;;;30.38;19.63;;;4.40;99.90;;;;;;5077747;28;20051;-72
2022/11/22 03:58:24;;;;;;;28.77;19.70;;;4.50;99.90;;;;;;5078076;28;20075;-72
2022/11/22 04:00:50;;;;;;;29.83;18.98;;;4.40;99.90;;;;;;5081697;28;20076;-73
2022/11/22 04:03:16;;;;;;;28.77;19.45;;;4.50;99.90;;;;;;5095053;28;20051;-73
2022/11/22 04:05:43;;;;;;;30.42;19.27;;;4.50;99.90;;;;;;5088051;28;20059;-73
2022/11/22 04:08:09;;;;;;;;;;;4.50;99.90;;;;;;5079201;28;20050;-73
2022/11/22 04:10:34;;;;;;;29.48;19.85;;;4.50;99.90;;;;;;5087446;28;20289;-72
2022/11/22 04:13:00;;;;;;;30.08;19.42;;;4.50;99.90;;;;;;5086277;28;20032;-72
2022/11/22 04:15:26;;;;;;;28.92;19.55;;;4.50;99.90;;;;;;5070599;28;20032;-72
2022/11/22 04:17:52;;;;;;;29.65;19.88;;;4.50;99.90;;;;;;5114544;27;20044;-72
2022/11/22 04:23:08;;;;;;;29.40;20.30;;;4.50;99.90;;;;;;5071629;28;20492;-72
2022/11/22 04:25:36;;;;;;;32.55;20.67;;;4.50;99.90;;;;;;5077585;28;20056;-72
2022/11/22 04:28:03;;;;;;;31.15;19.80;;;4.60;99.90;;;;;;5087599;28;20047;-72
2022/11/22 04:33:15;;;;;;;28.85;18.67;;;4.60;99.90;;;;;;5087534;28;20669;-72
2022/11/22 04:35:42;;;;;;;29.65;19.30;;;4.60;99.90;;;;;;5077704;28;20075;-73
2022/11/22 04:38:07;;;;;;;28.20;19.02;;;4.60;99.90;;;;;;5089084;28;20115;-72
2022/11/22 04:40:34;;;;;;;30.33;20.00;;;4.60;99.90;;;;;;5078402;28;20541;-73
2022/11/22 04:45:44;;;;;;;27.55;18.92;;;4.60;99.90;;;;;;5084580;28;20055;-73
2022/11/22 04:48:11;;;;;;;27.10;19.05;;;4.60;99.90;;;;;;5077547;28;20044;-73
2022/11/22 04:53:23;;;;;;;29.52;18.98;;;4.70;99.90;;;;;;5077530;28;20048;-73
2022/11/22 04:55:49;;;;;;;28.15;18.63;;;4.70;99.90;;;;;;5086050;28;20054;-73
2022/11/22 04:58:15;;;;;;;27.42;18.88;;;4.70;99.90;;;;;;5077790;28;20408;-73
2022/11/22 05:00:41;;;;;;;31.77;19.17;;;4.70;99.90;;;;;;5082708;28;20044;-73
2022/11/22 05:03:07;;;;;;;32.50;20.17;;;4.70;99.90;;;;;;5094860;28;20502;-73
2022/11/22 05:05:38;;;;;;;26.02;19.55;;;4.80;99.90;;;;;;5071664;28;20070;-73
2022/11/22 05:08:05;;;;;;;30.73;18.90;;;4.80;99.90;;;;;;5083877;28;20114;-73
2022/11/22 05:10:55;;;;;;;28.88;19.05;;;4.80;99.90;;;;;;5079792;28;20123;-73
2022/11/22 05:13:17;;;;;;;27.08;18.58;;;4.80;99.90;;;;;;5117851;27;20073;-73
2022/11/22 05:15:42;;;;;;;29.42;19.48;;;4.80;99.90;;;;;;5086709;28;20135;-73
2022/11/22 05:18:08;;;;;;;29.45;19.13;;;4.80;99.90;;;;;;5079092;28;20114;-73
2022/11/22 05:20:35;;;;;;;27.63;19.48;;;4.90;99.90;;;;;;5087808;28;20173;-73
2022/11/22 05:25:46;;;;;;;28.30;18.85;;;4.90;99.90;;;;;;5083443;28;20298;-73
2022/11/22 05:28:11;;;;;;;30.38;18.52;;;4.90;99.90;;;;;;5082420;28;20040;-73
2022/11/22 05:30:40;;;;;;;27.25;18.50;;;4.80;99.90;;;;;;5077260;28;20432;-73
2022/11/22 05:33:06;;;;;;;27.73;19.17;;;4.90;99.90;;;;;;5084138;28;20032;-73
2022/11/22 05:35:31;;;;;;;26.75;19.05;;;4.90;99.90;;;;;;5086951;28;20040;-73
2022/11/22 05:37:58;;;;;;;27.70;18.67;;;4.90;99.90;;;;;;5082708;28;20059;-73
2022/11/22 05:40:24;;;;;;;26.70;18.40;;;5.00;99.90;;;;;;5073731;28;20036;-73
2022/11/22 05:42:50;;;;;;;32.83;20.42;;;5.00;99.90;;;;;;5116190;27;20040;-73
2022/11/22 05:45:16;;;;;;;26.40;17.88;;;4.90;99.90;;;;;;5082383;28;20044;-73
2022/11/22 05:47:41;;;;;;;27.30;19.27;;;5.00;99.90;;;;;;5085500;28;20036;-73
2022/11/22 05:50:07;;;;;;;27.55;19.00;;;5.00;99.90;;;;;;5077497;28;20094;-73
2022/11/22 05:52:33;;;;;;;26.00;18.38;;;5.00;99.90;;;;;;5074671;28;20048;-73
2022/11/22 05:54:59;;;;;;;28.08;18.48;;;5.00;99.90;;;;;;5109544;27;20066;-73
2022/11/22 05:57:24;;;;;;;32.38;19.65;;;5.00;99.90;;;;;;5081940;28;20153;-73
2022/11/22 05:59:50;;;;;;;29.02;19.88;;;5.00;99.90;;;;;;5086195;28;20127;-73
2022/11/22 06:02:16;;;;;;;30.88;19.30;;;5.10;99.90;;;;;;5086067;28;20047;-72
2022/11/22 06:04:41;;;;;;;30.75;19.58;;;5.00;99.90;;;;;;5082025;28;20445;-73
2022/11/22 06:07:07;;;;;;;28.98;20.48;;;5.10;99.90;;;;;;5083577;28;20020;-73
2022/11/22 06:09:33;;;;;;;28.08;19.33;;;5.10;99.90;;;;;;5075712;28;20411;-73
2022/11/22 06:11:59;;;;;;;31.20;19.55;;;5.10;99.90;;;;;;5116640;27;20036;-73
2022/11/22 06:14:24;;;;;;;30.77;19.98;;;5.10;99.90;;;;;;5079730;28;20036;-73
2022/11/22 06:16:50;;;;;;;30.67;19.27;;;5.10;99.90;;;;;;5076298;28;20059;-73
2022/11/22 06:19:16;;;;;;;28.45;19.10;;;5.10;99.90;;;;;;5079026;28;20115;-73
2022/11/22 06:21:42;;;;;;;28.83;18.80;;;5.10;99.90;;;;;;5081841;28;20503;-73
2022/11/22 06:24:08;;;;;;;29.98;19.38;;;5.10;99.90;;;;;;5083834;28;20035;-71
2022/11/22 06:26:34;;;;;;;28.25;19.05;;;5.10;99.90;;;;;;5086936;28;20451;-73
2022/11/22 06:29:00;;;;;;;33.88;20.10;;;5.10;99.90;;;;;;5118749;27;20052;-73
2022/11/22 06:31:27;;;;;;;30.90;18.98;;;5.10;99.90;;;;;;5078932;28;20043;-72
2022/11/22 06:33:55;;;;;;;29.80;19.10;;;5.10;99.90;;;;;;5078370;28;20101;-73
2022/11/22 06:36:23;;;;;;;29.85;18.30;;;5.20;99.90;;;;;;5071600;28;20063;-73
2022/11/22 06:38:49;;;;;;;29.23;19.15;;;5.20;99.90;;;;;;5086737;28;20048;-73
2022/11/22 06:41:16;;;;;;;32.92;19.00;;;5.20;99.90;;;;;;5081121;28;20040;-73
2022/11/22 06:43:44;;;;;;;35.03;19.42;;;5.20;99.90;;;;;;5072765;28;20096;-74
2022/11/22 06:46:11;;;;;;;33.17;19.17;;;5.20;99.90;;;;;;5086166;28;20487;-72
2022/11/22 06:48:38;;;;;;;30.15;18.60;;;5.20;99.90;;;;;;5109078;27;20052;-73
2022/11/22 06:51:13;;;;;;;32.47;18.90;;;5.20;99.90;;;;;;5068079;28;20093;-73
2022/11/22 06:53:39;;;;;;;32.67;18.05;;;5.20;99.90;;;;;;5083631;28;20154;-73
2022/11/22 06:56:18;;;;;;;31.85;18.08;;;5.20;99.90;;;;;;5084147;28;20549;-70
2022/11/22 06:58:45;;;;;;;31.45;18.23;;;5.20;99.90;;;;;;5115844;27;20047;-71
2022/11/22 07:01:14;;;;;;;30.20;18.45;;;5.20;99.90;;;;;;5081561;28;20044;-71
2022/11/22 07:03:40;;;;;;;30.70;18.55;;;5.20;99.90;;;;;;5091178;28;20052;-72
2022/11/22 07:06:07;;;;;;;35.35;18.52;;;5.30;99.90;;;;;;5089421;28;20032;-72
2022/11/22 07:08:33;;;;;;;;;;;5.30;99.90;;;;;;5083022;28;20085;-72
2022/11/22 07:11:08;;;;;;;49.67;25.95;;;5.20;99.90;;;;;;5117143;27;20133;-72
2022/11/22 07:13:34;;;;;;;66.85;35.08;;;5.20;99.90;;;;;;5082331;28;20511;-71
2022/11/22 07:16:02;;;;;;;57.35;33.45;;;5.30;99.90;;;;;;5085018;28;20090;-72
2022/11/22 07:18:28;;;;;;;62.45;32.85;;;5.30;99.90;;;;;;5074708;28;20496;-72
2022/11/22 07:21:01;;;;;;;53.15;25.95;;;5.30;99.90;;;;;;5075174;28;20062;-72
2022/11/22 07:23:27;;;;;;;39.75;19.48;;;5.30;99.90;;;;;;5075874;28;20048;-73
2022/11/22 07:25:52;;;;;;;33.03;17.13;;;5.30;99.90;;;;;;5076491;28;20589;-72
2022/11/22 07:28:18;;;;;;;33.53;15.75;;;5.40;99.90;;;;;;5074938;28;20044;-72
2022/11/22 07:30:44;;;;;;;29.20;13.23;;;5.40;99.90;;;;;;5077802;28;20479;-72
2022/11/22 07:33:09;;;;;;;25.42;12.27;;;5.40;99.90;;;;;;5074445;28;20080;-72
2022/11/22 07:35:36;;;;;;;22.00;11.73;;;5.40;99.90;;;;;;5115156;27;20577;-72
2022/11/22 07:38:02;;;;;;;20.75;10.65;;;5.50;99.90;;;;;;5114813;27;20102;-72
2022/11/22 07:40:28;;;;;;;28.17;10.90;;;5.50;99.90;;;;;;5081974;28;20039;-72
2022/11/22 07:42:54;;;;;;;28.13;11.52;;;5.50;99.90;;;;;;5082072;28;20040;-72
2022/11/22 07:45:20;;;;;;;24.40;9.70;;;5.50;99.90;;;;;;5115247;28;20093;-71
2022/11/22 07:47:48;;;;;;;27.85;10.55;;;5.60;99.90;;;;;;5082390;28;20047;-72
2022/11/22 07:50:15;;;;;;;23.35;8.50;;;5.60;99.90;;;;;;5079351;28;20036;-72
2022/11/22 07:52:41;;;;;;;18.92;8.93;;;5.60;99.90;;;;;;5073204;28;20036;-72
2022/11/22 07:55:07;;;;;;;26.70;8.07;;;5.60;99.90;;;;;;5081693;28;20080;-72
2022/11/22 07:57:36;;;;;;;19.42;7.25;;;5.60;99.90;;;;;;5078455;28;20058;-72
2022/11/22 08:00:03;;;;;;;22.00;6.93;;;5.60;99.90;;;;;;5084273;28;20065;-72
2022/11/22 08:02:29;;;;;;;22.75;7.10;;;5.50;99.90;;;;;;5086517;28;20039;-72
2022/11/22 08:04:55;;;;;;;19.70;6.85;;;5.60;99.90;;;;;;5081231;28;20426;-72
2022/11/22 08:07:20;;;;;;;21.42;7.15;;;5.60;99.90;;;;;;5081009;28;20043;-72
2022/11/22 08:09:46;;;;;;;28.13;10.23;;;5.60;99.90;;;;;;5081038;28;20040;-72
2022/11/22 08:12:12;;;;;;;25.52;8.25;;;5.60;99.90;;;;;;5080819;28;20052;-72
2022/11/22 08:14:38;;;;;;;38.15;12.98;;;5.60;99.90;;;;;;5079743;28;20043;-71
2022/11/22 08:17:10;;;;;;;38.45;15.40;;;5.60;99.90;;;;;;5085181;28;20055;-73
2022/11/22 08:19:35;;;;;;;48.08;20.75;;;5.70;99.90;;;;;;5081460;28;20063;-71
2022/11/22 08:22:01;;;;;;;54.97;20.10;;;5.70;99.90;;;;;;5081557;28;20526;-77
2022/11/22 08:24:27;;;;;;;54.85;19.90;;;5.70;99.90;;;;;;5086651;28;20078;-80
2022/11/22 08:26:53;;;;;;;61.10;21.35;;;5.70;99.90;;;;;;5079417;28;20123;-79
2022/11/22 08:29:18;;;;;;;48.60;16.85;;;5.60;99.90;;;;;;5082765;28;20404;-80
2022/11/22 08:31:44;;;;;;;40.38;13.77;;;5.70;99.90;;;;;;5098366;28;20433;-80
2022/11/22 08:34:09;;;;;;;37.60;12.55;;;5.70;99.90;;;;;;5083293;28;20048;-77
2022/11/22 08:36:35;;;;;;;39.83;12.63;;;5.80;99.90;;;;;;5084475;28;20147;-75
2022/11/22 08:39:01;;;;;;;28.52;8.30;;;5.80;99.90;;;;;;5095045;28;20051;-75
2022/11/22 08:41:27;;;;;;;27.05;8.57;;;5.80;99.90;;;;;;5084520;28;20044;-76
2022/11/22 08:43:52;;;;;;;30.50;11.15;;;5.80;99.90;;;;;;5104156;27;20063;-76
2022/11/22 08:46:19;;;;;;;39.45;14.13;;;5.80;99.90;;;;;;5083903;28;20058;-73
2022/11/22 08:48:45;;;;;;;42.70;15.40;;;5.80;99.90;;;;;;5083341;28;20039;-73
2022/11/22 08:51:12;;;;;;;53.97;21.73;;;5.90;99.90;;;;;;5081243;28;20510;-76
2022/11/22 08:53:41;;;;;;;57.08;20.42;;;5.90;99.90;;;;;;5086527;28;20055;-74
2022/11/22 08:56:09;;;;;;;40.42;15.75;;;5.90;99.90;;;;;;5087515;28;20032;-74
2022/11/22 08:58:36;;;;;;;38.53;13.80;;;5.90;99.90;;;;;;5084321;28;20093;-76
2022/11/22 09:01:06;;;;;;;34.08;11.50;;;6.00;99.90;;;;;;5088853;28;20125;-78
2022/11/22 09:03:33;;;;;;;29.17;10.00;;;6.00;99.90;;;;;;5083071;28;20444;-72
2022/11/22 09:06:04;;;;;;;25.52;9.43;;;6.00;99.90;;;;;;5090116;28;20052;-72
2022/11/22 09:08:30;;;;;;;20.05;6.00;;;6.00;99.90;;;;;;5083315;28;20048;-78
2022/11/22 09:11:07;;;;;;;21.87;6.40;;;6.00;99.90;;;;;;5082657;28;20119;-79
2022/11/22 09:13:33;;;;;;;16.27;5.55;;;6.10;99.90;;;;;;5089456;28;20052;-77
2022/11/22 09:16:06;;;;;;;22.52;6.15;;;6.10;99.90;;;;;;5089376;28;20058;-76
2022/11/22 09:18:32;;;;;;;18.08;5.70;;;6.10;99.90;;;;;;5090430;28;20048;-77
2022/11/22 09:21:02;;;;;;;23.00;5.57;;;6.10;99.90;;;;;;5087825;28;20048;-74
2022/11/22 09:23:28;;;;;;;17.95;5.50;;;6.20;99.90;;;;;;5083570;28;20047;-75
2022/11/22 09:26:08;;;;;;;18.20;4.78;;;6.20;99.90;;;;;;5069977;28;20044;-78
2022/11/22 09:28:34;;;;;;;15.98;4.07;;;6.20;99.90;;;;;;5079258;28;20047;-74
2022/11/22 09:31:07;;;;;;;18.10;4.88;;;6.30;99.90;;;;;;5087731;28;20109;-79
2022/11/22 09:33:35;;;;;;;20.75;5.97;;;6.30;99.90;;;;;;5081865;28;20045;-75
2022/11/22 09:36:03;;;;;;;20.70;5.88;;;6.30;99.90;;;;;;5083472;28;20075;-74
2022/11/22 09:38:29;;;;;;;17.35;4.35;;;6.30;99.90;;;;;;5086796;28;20051;-74
2022/11/22 09:40:55;;;;;;;15.52;4.22;;;6.40;99.90;;;;;;5089212;28;20044;-73
2022/11/22 09:43:33;;;;;;;16.98;5.03;;;6.40;99.90;;;;;;5075788;28;20091;-74
2022/11/22 09:46:14;;;;;;;17.08;4.43;;;6.50;99.90;;;;;;5076032;28;20110;-74
2022/11/22 09:49:13;;;;;;;12.65;3.40;;;6.50;99.90;;;;;;5083967;28;20047;-73
2022/11/22 09:51:48;;;;;;;16.08;3.95;;;6.50;99.90;;;;;;5082714;28;20043;-74
2022/11/22 09:54:26;;;;;;;18.10;4.32;;;6.50;99.90;;;;;;5084351;28;20048;-74
2022/11/22 09:56:52;;;;;;;;;;;6.60;99.90;;;;;;5084948;28;20452;-75
2022/11/22 09:59:24;;;;;;;12.90;3.20;;;6.60;99.90;;;;;;5088607;28;20963;-77
2022/11/22 10:01:58;;;;;;;13.00;3.92;;;6.60;99.90;;;;;;5079581;28;20059;-78
2022/11/22 10:04:28;;;;;;;16.85;4.30;;;6.70;99.90;;;;;;5083538;28;20083;-77
2022/11/22 10:07:00;;;;;;;17.25;3.53;;;6.70;99.90;;;;;;5086432;28;20465;-78
2022/11/22 10:09:38;;;;;;;15.85;3.78;;;6.70;99.90;;;;;;5098875;28;20049;-78
2022/11/22 10:12:09;;;;;;;16.75;4.13;;;6.80;99.90;;;;;;5081188;28;20054;-79
2022/11/22 10:15:05;;;;;;;14.18;3.20;;;6.80;99.90;;;;;;5081347;28;20047;-74
2022/11/22 10:17:49;;;;;;;13.83;3.27;;;6.80;99.90;;;;;;5070814;28;20451;-76
2022/11/22 10:20:26;;;;;;;15.40;3.60;;;6.90;99.90;;;;;;5087528;28;20054;-73
2022/11/22 10:22:52;;;;;;;;;;;6.90;99.90;;;;;;5087710;28;20051;-74
2022/11/22 10:25:34;;;;;;;11.90;3.15;;;6.90;99.90;;;;;;5082735;28;19920;-74
2022/11/22 10:28:10;;;;;;;11.68;3.15;;;6.90;99.90;;;;;;5084199;28;20036;-74
2022/11/22 10:30:41;;;;;;;12.27;3.45;;;6.90;99.90;;;;;;5073013;28;20090;-74
2022/11/22 10:33:23;;;;;;;23.23;6.75;;;6.90;99.90;;;;;;5118705;27;20075;-76
2022/11/22 10:35:57;;;;;;;13.05;3.60;;;7.00;99.90;;;;;;5082552;28;20048;-76
2022/11/22 10:38:24;;;;;;;16.60;4.72;;;7.00;99.90;;;;;;5087166;28;20043;-78
2022/11/22 10:41:12;;;;;;;10.25;2.75;;;7.00;99.90;;;;;;5095236;28;20092;-80
2022/11/22 10:44:11;;;;;;;14.48;5.07;;;7.10;99.90;;;;;;5084075;28;20052;-80
2022/11/22 10:46:51;;;;;;;13.02;3.92;;;7.10;99.90;;;;;;5077627;28;20044;-77
2022/11/22 10:49:54;;;;;;;15.10;4.85;;;7.10;99.90;;;;;;5085630;28;20040;-77
2022/11/22 10:52:55;;;;;;;13.88;3.58;;;7.20;99.90;;;;;;5084398;28;20036;-77
2022/11/22 10:56:06;;;;;;;14.20;2.83;;;7.20;99.90;;;;;;5070814;28;20123;-77
2022/11/22 10:59:16;;;;;;;18.10;5.72;;;7.20;99.90;;;;;;5081834;28;20058;-76
2022/11/22 11:01:59;;;;;;;18.73;6.88;;;7.30;99.90;;;;;;5077940;28;20499;-78
2022/11/22 11:04:30;;;;;;;15.20;3.88;;;7.30;99.90;;;;;;5106329;27;20044;-78
2022/11/22 11:06:59;;;;;;;11.60;4.00;;;7.30;99.90;;;;;;5085568;28;20136;-78
2022/11/22 11:09:37;;;;;;;19.95;6.93;;;7.30;99.90;;;;;;5083170;28;20039;-76
2022/11/22 11:12:15;;;;;;;11.48;3.25;;;7.40;99.90;;;;;;5112715;27;20056;-76
2022/11/22 11:14:48;;;;;;;15.63;3.75;;;7.40;99.90;;;;;;5087330;28;20055;-78
2022/11/22 11:17:19;;;;;;;15.85;4.28;;;7.50;99.90;;;;;;5086834;28;20074;-80
2022/11/22 11:19:48;;;;;;;13.05;3.55;;;7.50;99.90;;;;;;5076693;28;20048;-80
2022/11/22 11:22:27;;;;;;;14.32;3.85;;;7.60;99.90;;;;;;5079875;28;20039;-81
2022/11/22 11:24:52;;;;;;;11.18;4.00;;;7.70;99.90;;;;;;5084152;28;20072;-80
2022/11/22 11:27:20;;;;;;;11.95;3.25;;;7.70;99.90;;;;;;5085057;28;20615;-79
2022/11/22 11:29:48;;;;;;;13.63;3.65;;;7.80;99.90;;;;;;5086886;28;20048;-78
2022/11/22 11:32:19;;;;;;;17.35;6.88;;;7.70;99.90;;;;;;5086395;28;20051;-75
2022/11/22 11:34:54;;;;;;;27.05;11.18;;;7.80;99.90;;;;;;5077791;28;20044;-79
2022/11/22 11:37:30;;;;;;;19.02;6.45;;;7.80;99.90;;;;;;5074438;28;20032;-77
2022/11/22 11:39:55;;;;;;;15.43;4.13;;;7.80;99.90;;;;;;5080900;28;20049;-78
2022/11/22 11:42:27;;;;;;;12.07;4.53;;;7.80;99.90;;;;;;5074974;28;20110;-76
2022/11/22 11:44:53;;;;;;;13.07;4.90;;;7.90;99.90;;;;;;5118775;28;20597;-74
2022/11/22 11:47:31;;;;;;;17.05;8.98;;;7.80;99.90;;;;;;5083123;28;20040;-75
2022/11/22 11:49:57;;;;;;;14.85;4.95;;;7.90;99.90;;;;;;5110784;28;20505;-75
2022/11/22 11:52:25;;;;;;;11.27;3.70;;;7.80;99.90;;;;;;5081527;28;20040;-77
2022/11/22 11:55:01;;;;;;;16.83;5.25;;;7.90;99.90;;;;;;5073066;28;20185;-78
2022/11/22 11:57:33;;;;;;;27.65;14.32;;;8.00;99.90;;;;;;5082142;28;20044;-77
2022/11/22 12:00:19;;;;;;;18.02;8.90;;;8.00;99.90;;;;;;5086246;28;20525;-92
2022/11/22 12:02:46;;;;;;;18.23;9.02;;;8.00;99.90;;;;;;5083720;28;20592;-82
2022/11/22 12:05:12;;;;;;;17.27;7.10;;;8.00;99.90;;;;;;5086440;28;20186;-78
2022/11/22 12:07:43;;;;;;;34.38;15.65;;;8.00;99.90;;;;;;5086623;28;20052;-79
2022/11/22 12:10:45;;;;;;;30.67;17.13;;;8.00;99.90;;;;;;5084636;28;20882;-79
2022/11/22 12:13:20;;;;;;;25.63;14.57;;;8.00;99.90;;;;;;5086390;28;20423;-83
2022/11/22 12:16:20;;;;;;;21.38;11.05;;;8.00;99.90;;;;;;5082701;28;20051;-75
2022/11/22 12:19:03;;;;;;;13.57;6.30;;;8.00;99.90;;;;;;5083811;28;20375;-80
2022/11/22 12:22:13;;;;;;;16.35;3.55;;;8.00;99.90;;;;;;5086425;28;20044;-74
2022/11/22 12:24:48;;;;;;;13.82;4.30;;;8.00;99.90;;;;;;5045944;28;20147;-74
2022/11/22 12:27:13;;;;;;;12.68;5.03;;;7.90;99.90;;;;;;5068649;28;20106;-73
2022/11/22 12:29:43;;;;;;;18.05;9.13;;;7.90;99.90;;;;;;5086982;28;20414;-73
2022/11/22 12:32:34;;;;;;;22.85;14.57;;;8.00;99.90;;;;;;5085874;28;20067;-74
2022/11/22 12:35:06;;;;;;;20.45;10.43;;;8.00;99.90;;;;;;5082209;28;20058;-73
2022/11/22 12:37:53;;;;;;;13.38;5.97;;;7.90;99.90;;;;;;5091459;28;20032;-74
2022/11/22 12:40:38;;;;;;;17.15;8.52;;;7.90;99.90;;;;;;5078267;28;20106;-74
2022/11/22 12:43:10;;;;;;;12.38;4.88;;;7.90;99.90;;;;;;5080018;28;20032;-74
2022/11/22 12:45:43;;;;;;;15.07;6.63;;;7.90;99.90;;;;;;5077571;28;20039;-78
2022/11/22 12:48:24;;;;;;;14.95;7.60;;;7.90;99.90;;;;;;5083862;28;20498;-74
2022/11/22 12:50:57;;;;;;;12.13;3.53;;;7.90;99.90;;;;;;5089573;28;20379;-75
2022/11/22 12:53:37;;;;;;;9.55;4.90;;;7.90;99.90;;;;;;5080256;28;20039;-76
2022/11/22 12:56:38;;;;;;;9.63;4.05;;;7.80;99.90;;;;;;5084353;28;20040;-73
2022/11/22 12:59:09;;;;;;;8.57;3.97;;;7.80;99.90;;;;;;5073995;28;20090;-73
2022/11/22 13:01:43;;;;;;;9.65;3.58;;;7.80;99.90;;;;;;5079517;28;20058;-72
2022/11/22 13:04:08;;;;;;;8.75;2.60;;;7.80;99.90;;;;;;5117769;27;20660;-72
2022/11/22 13:06:46;;;;;;;9.35;4.70;;;7.80;99.90;;;;;;5088600;28;20060;-73